LIEO/OLB METAR and TAF weather

Enter ICAO airport designator
Station Type Date Time Source
LIEO METAR 2018/12/11 17:50 UTC NOAA

LIEO 111750Z 21003KT 160V240 9999 FEW025 10/06 Q1018


Station Type Date Time Source
LIEO Decoded METAR 2018/12/11 17:50 UTC NOAA

Olbia / Costa Smeralda, Italy (LIEO) 40-54N 009-31E 13M
Dec 11, 2018 - 12:50 PM EST / 2018.12.11 1750 UTC
Wind: from the SSW (210 degrees) at 3 MPH (3 KT) (direction variable):0
Visibility: greater than 7 mile(s):0
Sky conditions: mostly clear
Temperature: 50 F (10 C)
Dew Point: 42 F (6 C)
Relative Humidity: 76%
Pressure (altimeter): 30.06 in. Hg (1018 hPa)
ob: LIEO 111750Z 21003KT 160V240 9999 FEW025 10/06 Q1018
cycle: 18

Station Type Date Time Source
LIEO TAF 2018/12/11 18:21 UTC NOAA

TAF LIEO 111700Z 1118/1218 24008KT 9999 FEW030


Example: see airport list